createdAt,value
2018-06-19T00:01:25.188Z,15.50
2018-06-19T00:03:54.197Z,15.40
2018-06-19T00:06:23.205Z,15.40
2018-06-19T00:08:52.145Z,15.40
2018-06-19T00:11:21.184Z,15.30
2018-06-19T00:16:18.978Z,15.30
2018-06-19T00:21:22.088Z,15.20
2018-06-19T00:23:51.037Z,15.20
2018-06-19T00:26:19.999Z,15.10
2018-06-19T00:28:49.994Z,15.10
2018-06-19T00:31:18.986Z,15.10
2018-06-19T00:33:47.952Z,15.00
2018-06-19T00:36:16.946Z,15.00
2018-06-19T00:38:45.965Z,15.00
2018-06-19T00:41:15.015Z,15.00
2018-06-19T00:43:44.254Z,15.00
2018-06-19T00:48:42.342Z,15.00
2018-06-19T00:51:11.406Z,15.10
2018-06-19T00:53:40.366Z,15.10
2018-06-19T00:56:21.013Z,15.10
2018-06-19T00:58:49.972Z,15.30
2018-06-19T01:01:18.914Z,15.30
2018-06-19T01:03:47.947Z,15.40
2018-06-19T01:06:16.914Z,15.50
2018-06-19T01:08:45.930Z,15.50
2018-06-19T01:11:14.930Z,15.60
2018-06-19T01:13:44.050Z,15.70
2018-06-19T01:16:13.318Z,15.70
2018-06-19T01:18:42.421Z,15.70
2018-06-19T01:21:11.502Z,15.80
2018-06-19T01:23:40.585Z,15.80
2018-06-19T01:26:09.559Z,15.90
2018-06-19T01:28:38.558Z,16.00
2018-06-19T01:31:07.561Z,16.00
2018-06-19T01:33:36.504Z,16.10
2018-06-19T01:36:05.547Z,16.10
2018-06-19T01:41:03.559Z,16.20
2018-06-19T01:43:32.498Z,16.20
2018-06-19T01:46:01.515Z,16.20
2018-06-19T01:48:30.457Z,16.20
2018-06-19T01:50:59.478Z,16.20
2018-06-19T01:53:28.485Z,16.30
2018-06-19T01:55:57.617Z,16.30
2018-06-19T01:58:26.894Z,16.30
2018-06-19T02:03:24.477Z,16.30
2018-06-19T02:05:53.508Z,16.30
2018-06-19T02:08:22.460Z,16.30
2018-06-19T02:10:51.534Z,16.30
2018-06-19T02:13:20.467Z,16.30
2018-06-19T02:15:49.481Z,16.40
2018-06-19T02:18:18.472Z,16.30
2018-06-19T02:20:47.573Z,16.30
2018-06-19T02:23:16.573Z,16.30
2018-06-19T02:25:45.705Z,16.30
2018-06-19T02:28:14.861Z,16.30
2018-06-19T02:30:43.824Z,16.30
2018-06-19T02:33:12.962Z,16.30
2018-06-19T02:35:41.966Z,16.30
2018-06-19T02:38:10.939Z,16.20
2018-06-19T02:40:39.929Z,16.20
2018-06-19T02:43:08.913Z,16.20
2018-06-19T02:45:37.864Z,16.20
2018-06-19T02:48:06.884Z,16.20
2018-06-19T02:50:35.825Z,16.30
2018-06-19T02:53:04.813Z,16.30
2018-06-19T02:55:33.877Z,16.20
2018-06-19T02:58:02.914Z,16.20
2018-06-19T03:00:32.089Z,16.10
2018-06-19T03:03:01.006Z,16.20
2018-06-19T03:05:30.297Z,16.10
2018-06-19T03:07:59.331Z,16.20
2018-06-19T03:10:28.602Z,16.20
2018-06-19T03:12:57.805Z,16.20
2018-06-19T03:15:26.786Z,16.20
2018-06-19T03:17:55.844Z,16.10
2018-06-19T03:25:22.454Z,16.10
2018-06-19T03:27:51.465Z,16.20
2018-06-19T03:30:20.495Z,16.20
2018-06-19T03:32:49.446Z,16.20
2018-06-19T03:35:18.384Z,16.20
2018-06-19T03:37:47.417Z,16.20
2018-06-19T03:40:16.352Z,16.20
2018-06-19T03:42:45.441Z,16.20
2018-06-19T03:45:14.405Z,16.10
2018-06-19T03:47:43.661Z,16.10
2018-06-19T03:50:12.698Z,16.10
2018-06-19T03:52:41.865Z,16.10
2018-06-19T03:55:10.830Z,16.00
2018-06-19T03:57:39.873Z,16.10
2018-06-19T04:00:08.805Z,16.10
2018-06-19T04:02:38.876Z,16.10
2018-06-19T04:05:07.915Z,16.10
2018-06-19T04:07:37.028Z,16.10
2018-06-19T04:10:05.947Z,16.10
2018-06-19T04:12:35.022Z,16.10
2018-06-19T04:15:04.023Z,16.10
2018-06-19T04:17:33.107Z,16.20
2018-06-19T04:20:02.070Z,16.20
2018-06-19T04:22:30.983Z,16.10
2018-06-19T04:24:59.941Z,16.10
2018-06-19T04:27:29.257Z,16.10
2018-06-19T04:29:58.458Z,16.10
2018-06-19T04:32:27.725Z,16.20
2018-06-19T04:34:56.693Z,16.20
2018-06-19T04:37:25.634Z,16.10
2018-06-19T04:39:54.579Z,16.10
2018-06-19T04:42:23.655Z,16.10
2018-06-19T04:44:53.348Z,16.10
2018-06-19T04:47:22.927Z,16.20
2018-06-19T04:49:51.858Z,16.30
2018-06-19T04:52:20.823Z,16.20
2018-06-19T04:54:49.794Z,16.20
2018-06-19T04:57:18.829Z,16.20
2018-06-19T04:59:47.777Z,16.20
2018-06-19T05:02:16.736Z,16.20
2018-06-19T05:04:45.679Z,16.20
2018-06-19T05:07:14.666Z,16.20
2018-06-19T05:09:43.674Z,16.20
2018-06-19T05:12:12.706Z,16.10
2018-06-19T05:14:41.694Z,16.10
2018-06-19T05:17:10.649Z,16.20
2018-06-19T05:19:39.600Z,16.20
2018-06-19T05:22:08.566Z,16.30
2018-06-19T05:24:37.528Z,16.30
2018-06-19T05:27:06.532Z,16.40
2018-06-19T05:29:35.484Z,16.40
2018-06-19T05:32:04.550Z,16.40
2018-06-19T05:34:33.653Z,16.50
2018-06-19T05:37:02.760Z,16.50
2018-06-19T05:39:31.861Z,16.50
2018-06-19T05:42:01.242Z,16.60
2018-06-19T05:44:30.378Z,16.60
2018-06-19T05:46:59.546Z,16.70
2018-06-19T05:49:28.532Z,16.70
2018-06-19T05:51:57.462Z,16.70
2018-06-19T05:54:26.484Z,16.70
2018-06-19T05:56:55.473Z,16.80
2018-06-19T05:59:24.397Z,16.90
2018-06-19T06:01:53.583Z,16.90
2018-06-19T06:04:22.654Z,17.00
2018-06-19T06:09:20.455Z,16.90
2018-06-19T06:11:49.670Z,16.80
2018-06-19T06:14:18.726Z,16.90
2018-06-19T06:16:47.822Z,16.90
2018-06-19T06:21:46.119Z,16.90
2018-06-19T06:24:15.210Z,16.90
2018-06-19T06:26:44.321Z,16.90
2018-06-19T06:29:13.621Z,17.00
2018-06-19T06:31:42.654Z,17.00
2018-06-19T06:34:11.696Z,17.00
2018-06-19T06:36:40.627Z,17.10
2018-06-19T06:39:09.837Z,17.10
2018-06-19T06:41:38.794Z,17.10
2018-06-19T06:44:07.828Z,17.10
2018-06-19T06:46:36.796Z,17.20
2018-06-19T06:49:05.815Z,17.30
2018-06-19T06:51:34.843Z,17.30
2018-06-19T06:54:03.784Z,17.20
2018-06-19T06:56:32.766Z,17.30
2018-06-19T06:59:01.782Z,17.40
2018-06-19T07:01:30.752Z,17.40
2018-06-19T07:03:59.718Z,17.50
2018-06-19T07:06:28.900Z,17.50
2018-06-19T07:11:26.523Z,17.50
2018-06-19T07:13:56.356Z,17.50
2018-06-19T07:16:25.422Z,17.50
2018-06-19T07:18:54.547Z,17.60
2018-06-19T07:21:23.623Z,17.50
2018-06-19T07:23:52.679Z,17.50
2018-06-19T07:26:21.722Z,17.60
2018-06-19T07:28:50.754Z,17.60
2018-06-19T07:31:19.777Z,17.80
2018-06-19T07:33:48.800Z,17.90
2018-06-19T07:36:17.747Z,17.90
2018-06-19T07:38:46.730Z,17.90
2018-06-19T07:41:15.724Z,17.90
2018-06-19T07:43:44.866Z,18.00
2018-06-19T07:46:13.921Z,18.10
2018-06-19T07:48:43.166Z,18.10
2018-06-19T07:51:12.154Z,18.30
2018-06-19T07:53:41.125Z,18.40
2018-06-19T07:56:10.068Z,18.40
2018-06-19T07:58:39.313Z,18.40
2018-06-19T08:01:08.351Z,18.40
2018-06-19T08:03:37.358Z,18.40
2018-06-19T08:06:07.357Z,18.40
2018-06-19T08:08:36.420Z,18.40
2018-06-19T08:11:05.358Z,18.40
2018-06-19T08:13:34.478Z,18.50
2018-06-19T08:16:03.616Z,18.60
2018-06-19T08:18:32.694Z,18.70
2018-06-19T08:21:01.663Z,18.70
2018-06-19T08:23:30.597Z,18.80
2018-06-19T08:28:28.861Z,18.80
2018-06-19T08:30:57.869Z,18.80
2018-06-19T08:33:26.819Z,18.90
2018-06-19T08:35:56.420Z,19.10
2018-06-19T08:38:25.482Z,19.20
2018-06-19T08:40:54.540Z,19.20
2018-06-19T08:43:23.614Z,19.30
2018-06-19T08:45:52.603Z,19.30
2018-06-19T08:48:21.626Z,19.40
2018-06-19T08:50:50.703Z,19.40
2018-06-19T08:53:19.699Z,19.40
2018-06-19T08:55:48.730Z,19.50
2018-06-19T08:58:17.966Z,19.50
2018-06-19T09:00:47.137Z,19.50
2018-06-19T09:03:16.342Z,19.60
2018-06-19T09:05:45.374Z,19.70
2018-06-19T09:08:14.479Z,19.80
2018-06-19T09:10:43.480Z,19.90
2018-06-19T09:13:12.442Z,20.00
2018-06-19T09:15:41.464Z,20.10
2018-06-19T09:18:10.503Z,20.10
2018-06-19T09:20:39.539Z,20.20
2018-06-19T09:23:08.509Z,20.40
2018-06-19T09:25:37.454Z,20.80
2018-06-19T09:28:06.631Z,21.10
2018-06-19T09:33:04.309Z,21.40
2018-06-19T09:35:33.310Z,21.60
2018-06-19T09:38:02.341Z,21.80
2018-06-19T09:40:31.421Z,21.80
2018-06-19T09:43:00.490Z,21.90
2018-06-19T09:45:29.573Z,22.10
2018-06-19T09:47:58.629Z,22.20
2018-06-19T09:50:27.592Z,22.40
2018-06-19T09:52:56.861Z,22.30
2018-06-19T09:55:26.026Z,22.40
2018-06-19T09:57:55.004Z,22.50
2018-06-19T10:00:29.347Z,22.60
2018-06-19T10:05:27.497Z,22.80
2018-06-19T10:07:56.464Z,22.90
2018-06-19T10:10:25.931Z,22.80
2018-06-19T10:12:55.281Z,22.70
2018-06-19T10:15:24.274Z,22.50
2018-06-19T10:17:53.378Z,22.50
2018-06-19T10:20:22.346Z,22.50
2018-06-19T10:25:51.003Z,22.20
2018-06-19T10:28:20.071Z,22.30
2018-06-19T10:30:49.322Z,22.30
2018-06-19T10:33:18.262Z,22.20
2018-06-19T10:35:47.490Z,22.10
2018-06-19T10:38:16.517Z,22.10
2018-06-19T10:40:45.497Z,22.00
2018-06-19T10:43:14.522Z,21.90
2018-06-19T10:45:43.514Z,21.90
2018-06-19T10:48:12.530Z,22.00
2018-06-19T10:50:41.611Z,22.00
2018-06-19T10:53:10.611Z,22.00
2018-06-19T10:55:39.562Z,22.00
2018-06-19T10:58:08.685Z,22.20
2018-06-19T11:00:37.706Z,22.30
2018-06-19T11:03:06.663Z,22.50
2018-06-19T11:05:35.739Z,22.50
2018-06-19T11:08:04.752Z,22.60
2018-06-19T11:10:33.763Z,22.80
2018-06-19T11:13:02.737Z,22.80
2018-06-19T11:15:31.732Z,22.80
2018-06-19T11:18:00.718Z,23.00
2018-06-19T11:20:29.678Z,23.30
2018-06-19T11:22:58.634Z,23.50
2018-06-19T11:25:27.720Z,23.60
2018-06-19T11:30:25.505Z,23.70
2018-06-19T11:35:23.075Z,23.50
2018-06-19T11:37:52.049Z,23.80
2018-06-19T11:40:21.034Z,23.90
2018-06-19T11:42:50.025Z,24.00
2018-06-19T11:45:18.998Z,23.90
2018-06-19T11:47:47.935Z,23.90
2018-06-19T11:52:45.722Z,24.00
2018-06-19T11:55:14.837Z,24.10
2018-06-19T11:57:43.875Z,24.40
2018-06-19T12:00:12.819Z,24.40
2018-06-19T12:02:41.773Z,24.30
2018-06-19T12:07:41.978Z,24.40
2018-06-19T12:10:11.298Z,24.50
2018-06-19T12:12:40.878Z,24.60
2018-06-19T12:15:09.948Z,24.90
2018-06-19T12:17:39.004Z,25.20
2018-06-19T12:20:08.797Z,25.60
2018-06-19T12:22:37.936Z,25.90
2018-06-19T12:25:07.046Z,25.60
2018-06-19T12:27:36.092Z,25.60
2018-06-19T12:30:05.423Z,25.40
2018-06-19T12:32:34.637Z,25.30
2018-06-19T12:35:04.022Z,25.20
2018-06-19T12:37:33.312Z,25.20
2018-06-19T12:40:02.505Z,25.10
2018-06-19T12:42:31.803Z,25.00
2018-06-19T12:45:01.254Z,24.90
2018-06-19T12:47:30.349Z,24.80
2018-06-19T12:50:38.576Z,24.80
2018-06-19T12:53:19.847Z,24.70
2018-06-19T12:56:01.875Z,24.60
2018-06-19T12:58:31.970Z,24.70
2018-06-19T13:01:01.689Z,24.70
2018-06-19T13:03:42.374Z,24.70
2018-06-19T13:08:46.960Z,24.60
2018-06-19T13:11:15.971Z,24.50
2018-06-19T13:13:56.327Z,24.40
2018-06-19T13:16:36.740Z,24.30
2018-06-19T13:19:17.579Z,24.20
2018-06-19T13:21:46.539Z,24.10
2018-06-19T13:24:15.525Z,24.00
2018-06-19T13:26:44.525Z,24.00
2018-06-19T13:29:52.430Z,23.90
2018-06-19T13:32:21.636Z,23.60
2018-06-19T13:34:50.582Z,23.50
2018-06-19T13:37:19.572Z,23.50
2018-06-19T13:41:05.185Z,23.40
2018-06-19T13:43:45.991Z,23.50
2018-06-19T13:46:15.038Z,23.50
2018-06-19T13:48:44.380Z,23.70
2018-06-19T13:51:13.775Z,24.00
2018-06-19T13:53:44.029Z,24.20
2018-06-19T13:57:31.980Z,24.30
2018-06-19T14:00:02.542Z,24.30
2018-06-19T14:02:31.550Z,24.00
2018-06-19T14:05:01.075Z,24.00
2018-06-19T14:07:32.361Z,23.90
2018-06-19T14:10:21.482Z,23.90
2018-06-19T14:12:52.126Z,23.70
2018-06-19T14:15:22.218Z,23.60
2018-06-19T14:17:51.345Z,23.40
2018-06-19T14:20:20.554Z,23.30
2018-06-19T14:22:49.647Z,23.30
2018-06-19T14:25:19.441Z,23.40
2018-06-19T14:28:12.100Z,23.50
2018-06-19T14:30:41.128Z,23.60
2018-06-19T14:33:10.156Z,23.60
2018-06-19T14:35:39.269Z,23.50
2018-06-19T14:40:37.227Z,23.60
2018-06-19T14:43:06.320Z,23.70
2018-06-19T14:45:36.373Z,23.70
2018-06-19T14:48:05.413Z,23.70
2018-06-19T14:50:34.404Z,23.80
2018-06-19T14:53:03.365Z,23.80
2018-06-19T14:55:32.407Z,23.80
2018-06-19T14:58:01.500Z,23.80
2018-06-19T15:00:30.604Z,23.90
2018-06-19T15:02:59.576Z,23.80
2018-06-19T15:05:28.544Z,23.90
2018-06-19T15:07:57.689Z,23.80
2018-06-19T15:10:26.782Z,24.00
2018-06-19T15:12:55.726Z,23.90
2018-06-19T15:15:24.705Z,23.90
2018-06-19T15:17:53.702Z,23.90
2018-06-19T15:20:22.729Z,23.90
2018-06-19T15:22:51.834Z,23.80
2018-06-19T15:27:49.646Z,23.50
2018-06-19T15:30:18.724Z,23.50
2018-06-19T15:32:47.750Z,23.50
2018-06-19T15:35:16.850Z,23.50
2018-06-19T15:37:45.932Z,23.50
2018-06-19T15:40:14.871Z,23.60
2018-06-19T15:42:44.887Z,23.80
2018-06-19T15:45:13.833Z,23.90
2018-06-19T15:47:42.893Z,23.80
2018-06-19T15:50:12.010Z,23.80
2018-06-19T15:52:41.023Z,23.80
2018-06-19T15:55:10.006Z,23.80
2018-06-19T15:57:39.241Z,23.80
2018-06-19T16:02:36.889Z,23.80
2018-06-19T16:05:05.896Z,23.80
2018-06-19T16:07:40.187Z,23.70
2018-06-19T16:10:09.203Z,23.80
2018-06-19T16:12:38.200Z,23.90
2018-06-19T16:15:07.251Z,23.90
2018-06-19T16:17:36.255Z,23.90
2018-06-19T16:20:05.533Z,24.00
2018-06-19T16:22:34.562Z,24.10
2018-06-19T16:25:03.555Z,24.10
2018-06-19T16:27:32.593Z,24.20
2018-06-19T16:30:01.487Z,24.10
2018-06-19T16:32:30.611Z,24.10
2018-06-19T16:34:59.596Z,24.10
2018-06-19T16:37:28.543Z,24.00
2018-06-19T16:39:57.587Z,23.80
2018-06-19T16:42:26.545Z,23.70
2018-06-19T16:44:55.527Z,23.70
2018-06-19T16:47:24.530Z,23.60
2018-06-19T16:49:53.593Z,23.50
2018-06-19T16:52:22.555Z,23.60
2018-06-19T16:54:51.554Z,23.60
2018-06-19T16:57:20.573Z,23.70
2018-06-19T17:02:18.222Z,23.60
2018-06-19T17:04:47.841Z,23.60
2018-06-19T17:07:16.827Z,23.70
2018-06-19T17:09:45.815Z,23.70
2018-06-19T17:12:14.773Z,23.60
2018-06-19T17:14:44.790Z,23.60
2018-06-19T17:17:13.741Z,23.40
2018-06-19T17:19:42.785Z,23.30
2018-06-19T17:22:12.025Z,23.20
2018-06-19T17:24:41.102Z,23.10
2018-06-19T17:27:10.097Z,22.90
2018-06-19T17:29:39.198Z,22.80
2018-06-19T17:34:37.687Z,22.70
2018-06-19T17:39:35.525Z,22.50
2018-06-19T17:42:04.502Z,22.50
2018-06-19T17:44:33.502Z,22.60
2018-06-19T17:47:02.598Z,22.60
2018-06-19T17:49:31.615Z,22.60
2018-06-19T17:52:00.552Z,22.60
2018-06-19T17:54:29.627Z,22.70
2018-06-19T17:56:58.559Z,22.60
2018-06-19T17:59:27.582Z,22.60
2018-06-19T18:01:56.565Z,22.60
2018-06-19T18:04:25.667Z,22.60
2018-06-19T18:06:54.660Z,22.60
2018-06-19T18:09:23.638Z,22.60
2018-06-19T18:11:52.626Z,22.50
2018-06-19T18:14:21.615Z,22.40
2018-06-19T18:16:50.684Z,22.40
2018-06-19T18:19:19.834Z,22.40
2018-06-19T18:21:49.201Z,22.40
2018-06-19T18:24:18.215Z,22.40
2018-06-19T18:26:47.288Z,22.50
2018-06-19T18:29:16.556Z,22.40
2018-06-19T18:31:45.595Z,22.40
2018-06-19T18:34:14.692Z,22.40
2018-06-19T18:36:44.454Z,22.40
2018-06-19T18:39:13.531Z,22.30
2018-06-19T18:41:42.641Z,22.30
2018-06-19T18:44:11.837Z,22.30
2018-06-19T18:46:40.945Z,22.30
2018-06-19T18:49:09.910Z,22.20
2018-06-19T18:51:38.997Z,22.20
2018-06-19T18:56:36.667Z,22.10
2018-06-19T19:01:34.582Z,22.00
2018-06-19T19:04:03.604Z,22.00
2018-06-19T19:06:32.678Z,22.00
2018-06-19T19:09:02.021Z,21.90
2018-06-19T19:14:22.361Z,21.90
2018-06-19T19:16:56.575Z,21.80
2018-06-19T19:19:25.797Z,21.80
2018-06-19T19:21:55.040Z,21.70
2018-06-19T19:24:23.961Z,21.70
2018-06-19T19:26:58.449Z,21.60
2018-06-19T19:29:32.811Z,21.60
2018-06-19T19:32:01.802Z,21.60
2018-06-19T19:34:30.752Z,21.60
2018-06-19T19:38:06.285Z,21.50
2018-06-19T19:40:35.584Z,21.40
2018-06-19T19:43:04.809Z,21.30
2018-06-19T19:45:33.857Z,21.30
2018-06-19T19:48:08.214Z,21.30
2018-06-19T19:50:37.388Z,21.20
2018-06-19T19:53:06.714Z,21.20
2018-06-19T19:55:39.894Z,21.20
2018-06-19T19:58:14.485Z,21.20
2018-06-19T20:00:43.661Z,21.20
2018-06-19T20:03:12.679Z,21.20
2018-06-19T20:05:41.662Z,21.20
2018-06-19T20:08:10.721Z,21.10
2018-06-19T20:10:39.841Z,21.10
2018-06-19T20:13:08.789Z,21.10
2018-06-19T20:15:37.806Z,21.00
2018-06-19T20:18:06.875Z,20.90
2018-06-19T20:20:35.840Z,20.90
2018-06-19T20:23:04.973Z,20.90
2018-06-19T20:25:33.917Z,20.90
2018-06-19T20:28:02.908Z,20.90
2018-06-19T20:30:31.899Z,20.80
2018-06-19T20:33:00.880Z,20.90
2018-06-19T20:35:30.015Z,20.80
2018-06-19T20:37:58.969Z,20.70
2018-06-19T20:40:27.963Z,20.70
2018-06-19T20:42:57.022Z,20.60
2018-06-19T20:45:25.986Z,20.50
2018-06-19T20:47:55.025Z,20.50
2018-06-19T20:50:24.176Z,20.50
2018-06-19T20:52:53.266Z,20.50
2018-06-19T20:55:22.398Z,20.50
2018-06-19T20:57:51.385Z,20.50
2018-06-19T21:00:20.348Z,20.40
2018-06-19T21:02:49.401Z,20.40
2018-06-19T21:05:18.524Z,20.40
2018-06-19T21:07:48.465Z,20.30
2018-06-19T21:10:17.462Z,20.30
2018-06-19T21:12:46.516Z,20.30
2018-06-19T21:15:15.622Z,20.30
2018-06-19T21:20:13.207Z,20.20
2018-06-19T21:22:42.293Z,20.20
2018-06-19T21:25:11.258Z,20.20
2018-06-19T21:27:40.251Z,20.20
2018-06-19T21:30:09.286Z,20.10
2018-06-19T21:32:38.276Z,20.10
2018-06-19T21:35:07.382Z,20.10
2018-06-19T21:37:36.443Z,20.10
2018-06-19T21:40:05.533Z,20.10
2018-06-19T21:45:03.195Z,20.00
2018-06-19T21:47:32.280Z,20.00
2018-06-19T21:52:29.989Z,20.00
2018-06-19T21:54:58.966Z,20.00
2018-06-19T21:57:27.946Z,19.90
2018-06-19T21:59:56.910Z,19.90
2018-06-19T22:02:32.555Z,19.90
2018-06-19T22:05:03.258Z,19.90
2018-06-19T22:07:32.785Z,19.90
2018-06-19T22:10:01.850Z,19.90
2018-06-19T22:12:30.862Z,19.90
2018-06-19T22:14:59.859Z,19.80
2018-06-19T22:17:28.855Z,19.80
2018-06-19T22:19:57.847Z,19.90
2018-06-19T22:22:26.875Z,19.90
2018-06-19T22:24:55.921Z,19.90
2018-06-19T22:27:24.896Z,19.90
2018-06-19T22:29:53.876Z,19.80
2018-06-19T22:32:22.923Z,19.80
2018-06-19T22:34:51.905Z,19.80
2018-06-19T22:37:20.874Z,19.70
2018-06-19T22:39:49.885Z,19.70
2018-06-19T22:42:18.869Z,19.70
2018-06-19T22:44:47.968Z,19.60
2018-06-19T22:47:16.929Z,19.60
2018-06-19T22:49:45.852Z,19.60
2018-06-19T22:52:15.232Z,19.60
2018-06-19T22:54:44.194Z,19.60
2018-06-19T22:57:13.334Z,19.60
2018-06-19T22:59:42.278Z,19.60
2018-06-19T23:02:11.346Z,19.60
2018-06-19T23:04:40.842Z,19.50
2018-06-19T23:07:09.844Z,19.50
2018-06-19T23:09:38.786Z,19.50
2018-06-19T23:12:07.798Z,19.50
2018-06-19T23:14:36.910Z,19.50
2018-06-19T23:17:05.883Z,19.50
2018-06-19T23:19:34.915Z,19.50
2018-06-19T23:24:32.482Z,19.50
2018-06-19T23:27:01.457Z,19.50
2018-06-19T23:29:30.427Z,19.40
2018-06-19T23:31:59.377Z,19.40
2018-06-19T23:34:28.451Z,19.40
2018-06-19T23:36:57.463Z,19.30
2018-06-19T23:39:26.615Z,19.30
2018-06-19T23:41:55.589Z,19.30
2018-06-19T23:44:24.586Z,19.30
2018-06-19T23:46:53.575Z,19.30
2018-06-19T23:49:22.664Z,19.30
2018-06-19T23:51:51.722Z,19.30
2018-06-19T23:54:20.666Z,19.20
2018-06-19T23:56:49.809Z,19.20
2018-06-19T23:59:18.806Z,19.20
